createdAt,value
2022-09-20T00:01:32.811Z,9.50
2022-09-20T00:04:00.102Z,9.50
2022-09-20T00:06:27.627Z,9.50
2022-09-20T00:08:55.153Z,9.50
2022-09-20T00:11:28.674Z,9.50
2022-09-20T00:13:56.448Z,9.40
2022-09-20T00:16:23.766Z,9.40
2022-09-20T00:18:51.300Z,9.40
2022-09-20T00:21:19.590Z,9.30
2022-09-20T00:23:47.137Z,9.30
2022-09-20T00:26:14.699Z,9.30
2022-09-20T00:28:42.234Z,9.30
2022-09-20T00:31:10.537Z,9.40
2022-09-20T00:33:56.002Z,9.30
2022-09-20T00:36:23.557Z,9.40
2022-09-20T00:38:51.849Z,9.40
2022-09-20T00:41:19.414Z,9.40
2022-09-20T00:43:46.950Z,9.40
2022-09-20T00:46:29.921Z,9.40
2022-09-20T00:48:57.456Z,9.40
2022-09-20T00:51:27.649Z,9.40
2022-09-20T00:53:56.247Z,9.60
2022-09-20T00:56:23.783Z,9.60
2022-09-20T00:59:07.141Z,9.60
2022-09-20T01:01:34.723Z,9.60
2022-09-20T01:04:03.027Z,9.50
2022-09-20T01:06:30.581Z,9.50
2022-09-20T01:08:58.117Z,9.50
2022-09-20T01:11:25.660Z,9.50
2022-09-20T01:13:53.215Z,9.70
2022-09-20T01:16:20.789Z,9.70
2022-09-20T01:18:49.053Z,9.70
2022-09-20T01:21:16.912Z,9.70
2022-09-20T01:24:03.134Z,9.70
2022-09-20T01:26:33.368Z,9.60
2022-09-20T01:29:06.672Z,9.60
2022-09-20T01:31:34.279Z,9.60
2022-09-20T01:34:04.636Z,9.80
2022-09-20T01:36:44.075Z,10.10
2022-09-20T01:39:23.169Z,10.00
2022-09-20T01:41:56.316Z,10.00
2022-09-20T01:44:35.567Z,9.90
2022-09-20T01:47:03.851Z,9.80
2022-09-20T01:50:09.363Z,9.70
2022-09-20T01:52:54.749Z,9.70
2022-09-20T01:55:37.082Z,9.70
2022-09-20T01:58:08.338Z,10.10
2022-09-20T02:00:41.842Z,10.10
2022-09-20T02:03:30.555Z,10.10
2022-09-20T02:06:03.564Z,10.00
2022-09-20T02:08:53.101Z,9.90
2022-09-20T02:11:24.350Z,9.70
2022-09-20T02:13:51.838Z,9.80
2022-09-20T02:16:31.753Z,9.70
2022-09-20T02:19:08.242Z,9.70
2022-09-20T02:21:44.481Z,9.70
2022-09-20T02:24:23.890Z,9.70
2022-09-20T02:27:03.418Z,9.70
2022-09-20T02:29:31.022Z,9.70
2022-09-20T02:32:19.726Z,9.70
2022-09-20T02:34:56.242Z,9.60
2022-09-20T02:37:57.389Z,9.60
2022-09-20T02:40:36.683Z,9.60
2022-09-20T02:43:31.647Z,9.60
2022-09-20T02:46:11.329Z,9.60
2022-09-20T02:49:02.950Z,9.60
2022-09-20T02:51:30.484Z,9.60
2022-09-20T02:54:07.619Z,9.60
2022-09-20T02:56:35.134Z,9.60
2022-09-20T02:59:21.298Z,9.60
2022-09-20T03:02:03.847Z,9.60
2022-09-20T03:04:40.258Z,9.60
2022-09-20T03:07:35.092Z,9.60
2022-09-20T03:10:20.950Z,9.60
2022-09-20T03:13:03.619Z,9.60
2022-09-20T03:15:37.005Z,9.60
2022-09-20T03:18:10.829Z,9.60
2022-09-20T03:20:41.220Z,9.60
2022-09-20T03:23:20.392Z,9.60
2022-09-20T03:26:09.214Z,9.90
2022-09-20T03:29:01.780Z,9.80
2022-09-20T03:31:48.374Z,9.70
2022-09-20T03:34:30.629Z,9.70
2022-09-20T03:36:58.175Z,9.70
2022-09-20T03:39:40.990Z,9.60
2022-09-20T03:42:14.807Z,9.60
2022-09-20T03:44:45.295Z,9.50
2022-09-20T03:47:28.386Z,9.50
2022-09-20T03:50:13.654Z,9.50
2022-09-20T03:53:02.500Z,9.40
2022-09-20T03:55:44.820Z,9.70
2022-09-20T03:58:49.672Z,9.70
2022-09-20T04:01:36.384Z,9.80
2022-09-20T04:04:25.081Z,9.80
2022-09-20T04:07:01.931Z,9.80
2022-09-20T04:09:53.796Z,9.90
2022-09-20T04:12:36.295Z,9.80
2022-09-20T04:15:28.190Z,9.70
2022-09-20T04:18:01.957Z,9.50
2022-09-20T04:20:29.502Z,9.50
2022-09-20T04:22:57.068Z,9.40
2022-09-20T04:25:24.603Z,9.60
2022-09-20T04:27:54.619Z,9.60
2022-09-20T04:30:22.190Z,9.50
2022-09-20T04:32:58.380Z,9.50
2022-09-20T04:36:14.249Z,9.40
2022-09-20T04:38:41.787Z,9.40
2022-09-20T04:41:21.045Z,9.60
2022-09-20T04:43:54.793Z,9.60
2022-09-20T04:46:56.654Z,9.40
2022-09-20T04:49:52.248Z,9.40
2022-09-20T04:52:44.231Z,9.30
2022-09-20T04:55:29.855Z,9.30
2022-09-20T04:58:16.086Z,9.30
2022-09-20T05:01:02.779Z,9.50
2022-09-20T05:03:30.276Z,9.50
2022-09-20T05:06:16.248Z,9.50
2022-09-20T05:09:06.020Z,9.40
2022-09-20T05:11:55.752Z,9.30
2022-09-20T05:14:38.574Z,9.30
2022-09-20T05:17:09.229Z,9.30
2022-09-20T05:20:01.331Z,9.30
2022-09-20T05:22:37.680Z,9.20
2022-09-20T05:25:05.548Z,9.20
2022-09-20T05:27:42.028Z,9.20
2022-09-20T05:30:30.629Z,9.30
2022-09-20T05:33:32.693Z,9.30
2022-09-20T05:36:10.646Z,9.30
2022-09-20T05:38:53.041Z,9.30
2022-09-20T05:41:26.167Z,9.30
2022-09-20T05:44:08.444Z,9.30
2022-09-20T05:46:35.975Z,9.60
2022-09-20T05:49:06.267Z,9.90
2022-09-20T05:51:36.607Z,9.90
2022-09-20T05:54:23.038Z,10.00
2022-09-20T05:57:08.373Z,9.90
2022-09-20T05:59:50.854Z,9.90
2022-09-20T06:02:18.439Z,9.90
2022-09-20T06:05:01.250Z,9.80
2022-09-20T06:07:59.203Z,9.80
2022-09-20T06:10:48.242Z,9.80
2022-09-20T06:13:45.867Z,9.80
2022-09-20T06:16:23.036Z,9.70
2022-09-20T06:18:56.062Z,9.70
2022-09-20T06:21:23.616Z,9.80
2022-09-20T06:23:51.199Z,9.80
2022-09-20T06:26:18.725Z,9.80
2022-09-20T06:28:47.007Z,9.90
2022-09-20T06:31:15.349Z,9.90
2022-09-20T06:33:42.884Z,9.90
2022-09-20T06:36:31.519Z,10.00
2022-09-20T06:39:47.831Z,10.00
2022-09-20T06:42:15.398Z,10.00
2022-09-20T06:44:42.941Z,10.10
2022-09-20T06:47:16.147Z,10.10
2022-09-20T06:49:43.731Z,10.20
2022-09-20T06:52:16.691Z,10.30
2022-09-20T06:54:44.225Z,10.40
2022-09-20T06:57:11.780Z,10.50
2022-09-20T06:59:39.364Z,10.60
2022-09-20T07:02:06.934Z,10.70
2022-09-20T07:04:35.221Z,10.80
2022-09-20T07:07:07.299Z,10.80
2022-09-20T07:09:30.300Z,10.90
2022-09-20T07:11:57.865Z,11.10
2022-09-20T07:14:25.421Z,11.20
2022-09-20T07:16:53.003Z,11.30
2022-09-20T07:19:21.296Z,11.40
2022-09-20T07:21:48.830Z,11.40
2022-09-20T07:24:16.375Z,11.50
2022-09-20T07:26:58.917Z,11.50
2022-09-20T07:29:26.450Z,11.70
2022-09-20T07:31:54.007Z,11.70
2022-09-20T07:34:22.328Z,11.90
2022-09-20T07:36:49.852Z,11.90
2022-09-20T07:39:20.301Z,12.00
2022-09-20T07:41:47.875Z,12.30
2022-09-20T07:44:21.282Z,12.40
2022-09-20T07:46:54.889Z,12.50
2022-09-20T07:49:23.192Z,12.70
2022-09-20T07:51:50.752Z,12.60
2022-09-20T07:54:19.107Z,12.80
2022-09-20T07:56:47.400Z,12.90
2022-09-20T07:59:14.924Z,12.90
2022-09-20T08:01:42.490Z,13.00
2022-09-20T08:04:10.014Z,13.10
2022-09-20T08:06:37.548Z,13.10
2022-09-20T08:09:08.944Z,13.10
2022-09-20T08:11:32.658Z,13.10
2022-09-20T08:14:08.557Z,13.10
2022-09-20T08:16:28.573Z,13.40
2022-09-20T08:18:56.069Z,13.40
2022-09-20T08:21:23.639Z,13.40
2022-09-20T08:23:51.237Z,13.60
2022-09-20T08:26:21.204Z,13.60
2022-09-20T08:28:48.729Z,13.60
2022-09-20T08:31:17.125Z,13.70
2022-09-20T08:33:44.616Z,13.70
2022-09-20T08:36:18.137Z,13.70
2022-09-20T08:41:20.050Z,14.20
2022-09-20T08:44:05.503Z,14.10
2022-09-20T08:46:32.997Z,14.20
2022-09-20T08:49:01.262Z,14.40
2022-09-20T08:51:28.838Z,14.40
2022-09-20T08:53:56.371Z,14.50
2022-09-20T08:56:24.685Z,14.60
2022-09-20T08:58:52.278Z,14.50
2022-09-20T09:01:22.456Z,14.60
2022-09-20T09:03:50.716Z,15.10
2022-09-20T09:06:18.650Z,15.10
2022-09-20T09:08:45.823Z,15.20
2022-09-20T09:11:14.117Z,15.40
2022-09-20T09:14:00.097Z,15.30
2022-09-20T09:16:34.688Z,15.40
2022-09-20T09:18:55.931Z,15.30
2022-09-20T09:21:26.281Z,15.30
2022-09-20T09:23:53.817Z,15.30
2022-09-20T09:26:24.079Z,15.20
2022-09-20T09:29:21.979Z,15.20
2022-09-20T09:31:49.591Z,15.10
2022-09-20T09:34:29.114Z,15.10
2022-09-20T09:36:56.645Z,15.10
2022-09-20T09:39:29.890Z,15.30
2022-09-20T09:41:57.465Z,15.30
2022-09-20T09:44:24.999Z,15.30
2022-09-20T09:46:52.553Z,15.40
2022-09-20T09:49:20.137Z,15.50
2022-09-20T09:52:09.363Z,15.60
2022-09-20T09:54:43.879Z,15.90
2022-09-20T09:57:36.925Z,15.90
2022-09-20T10:00:20.584Z,16.00
2022-09-20T10:02:53.853Z,16.00
2022-09-20T10:05:25.149Z,16.00
2022-09-20T10:08:13.567Z,16.30
2022-09-20T10:10:55.901Z,16.30
2022-09-20T10:13:41.721Z,16.20
2022-09-20T10:16:27.422Z,16.10
2022-09-20T10:19:06.979Z,16.10
2022-09-20T10:22:05.085Z,16.10
2022-09-20T10:25:03.212Z,16.10
2022-09-20T10:27:34.549Z,15.90
2022-09-20T10:30:16.780Z,15.90
2022-09-20T10:32:50.837Z,15.80
2022-09-20T10:35:29.864Z,15.80
2022-09-20T10:38:12.875Z,15.80
2022-09-20T10:41:00.948Z,15.80
2022-09-20T10:43:40.233Z,15.80
2022-09-20T10:46:30.866Z,15.70
2022-09-20T10:48:38.951Z,15.70
2022-09-20T10:51:27.526Z,15.70
2022-09-20T10:53:57.488Z,15.80
2022-09-20T10:56:34.421Z,15.90
2022-09-20T10:59:19.728Z,15.90
2022-09-20T11:02:18.284Z,15.90
2022-09-20T11:04:54.360Z,15.90
2022-09-20T11:07:43.211Z,15.90
2022-09-20T11:10:19.037Z,15.90
2022-09-20T11:13:04.216Z,16.20
2022-09-20T11:15:40.809Z,16.50
2022-09-20T11:18:23.562Z,16.50
2022-09-20T11:20:51.002Z,16.40
2022-09-20T11:23:19.305Z,16.40
2022-09-20T11:25:49.665Z,16.40
2022-09-20T11:28:19.897Z,16.30
2022-09-20T11:30:59.305Z,16.30
2022-09-20T11:33:29.344Z,16.30
2022-09-20T11:35:59.852Z,16.30
2022-09-20T11:38:33.599Z,16.30
2022-09-20T11:41:12.892Z,16.20
2022-09-20T11:43:40.492Z,16.20
2022-09-20T11:46:08.147Z,16.40
2022-09-20T11:48:35.544Z,16.40
2022-09-20T11:51:27.693Z,16.50
2022-09-20T11:54:19.095Z,16.50
2022-09-20T11:56:49.663Z,16.40
2022-09-20T11:59:19.994Z,16.40
2022-09-20T12:01:47.569Z,16.40
2022-09-20T12:04:33.346Z,16.40
2022-09-20T12:07:17.044Z,16.60
2022-09-20T12:09:40.527Z,16.60
2022-09-20T12:12:31.979Z,16.50
2022-09-20T12:14:59.553Z,16.50
2022-09-20T12:17:46.346Z,16.60
2022-09-20T12:20:35.308Z,16.60
2022-09-20T12:23:39.705Z,16.60
2022-09-20T12:26:19.154Z,16.70
2022-09-20T12:28:46.689Z,16.70
2022-09-20T12:31:23.021Z,16.80
2022-09-20T12:34:05.617Z,16.90
2022-09-20T12:36:33.101Z,16.90
2022-09-20T12:39:14.378Z,17.00
2022-09-20T12:41:49.548Z,17.10
2022-09-20T12:44:20.104Z,17.10
2022-09-20T12:46:50.603Z,17.20
2022-09-20T12:49:48.162Z,17.20
2022-09-20T12:52:43.023Z,17.20
2022-09-20T12:55:11.241Z,17.20
2022-09-20T12:57:38.125Z,17.20
2022-09-20T13:00:06.546Z,17.30
2022-09-20T13:02:52.153Z,17.30
2022-09-20T13:05:32.119Z,17.20
2022-09-20T13:08:02.707Z,17.00
2022-09-20T13:10:30.264Z,16.90
2022-09-20T13:13:00.473Z,17.00
2022-09-20T13:15:28.057Z,16.90
2022-09-20T13:17:55.612Z,16.80
2022-09-20T13:20:23.157Z,16.70
2022-09-20T13:22:50.731Z,16.60
2022-09-20T13:25:18.285Z,16.60
2022-09-20T13:28:09.667Z,16.50
2022-09-20T13:30:37.201Z,16.50
2022-09-20T13:33:16.749Z,16.40
2022-09-20T13:35:44.275Z,16.40
2022-09-20T13:38:11.828Z,16.60
2022-09-20T13:40:42.407Z,16.60
2022-09-20T13:43:37.500Z,16.60
2022-09-20T13:46:08.069Z,16.60
2022-09-20T13:48:35.543Z,16.60
2022-09-20T13:51:03.067Z,16.60
2022-09-20T13:53:46.591Z,16.80
2022-09-20T13:55:59.171Z,16.80
2022-09-20T13:58:29.403Z,16.80
2022-09-20T14:00:59.753Z,16.80
2022-09-20T14:03:27.240Z,16.80
2022-09-20T14:05:54.775Z,16.90
2022-09-20T14:08:23.137Z,17.00
2022-09-20T14:10:51.449Z,17.00
2022-09-20T14:13:19.005Z,17.00
2022-09-20T14:15:46.579Z,17.00
2022-09-20T14:18:14.132Z,17.00
2022-09-20T14:20:41.657Z,17.00
2022-09-20T14:23:28.440Z,16.90
2022-09-20T14:26:17.539Z,16.90
2022-09-20T14:28:45.901Z,16.80
2022-09-20T14:31:28.569Z,16.80
2022-09-20T14:33:56.882Z,16.70
2022-09-20T14:36:24.416Z,16.70
2022-09-20T14:38:51.961Z,16.70
2022-09-20T14:41:25.778Z,16.70
2022-09-20T14:43:56.346Z,16.60
2022-09-20T14:46:23.859Z,16.60
2022-09-20T14:48:51.444Z,16.50
2022-09-20T14:51:18.989Z,16.50
2022-09-20T14:53:46.522Z,16.50
2022-09-20T14:56:17.660Z,16.50
2022-09-20T14:59:06.764Z,16.50
2022-09-20T15:01:34.719Z,16.70
2022-09-20T15:04:11.131Z,16.60
2022-09-20T15:06:39.493Z,16.50
2022-09-20T15:09:07.028Z,16.40
2022-09-20T15:11:34.577Z,16.40
2022-09-20T15:14:02.141Z,16.40
2022-09-20T15:16:29.718Z,16.30
2022-09-20T15:18:57.221Z,16.30
2022-09-20T15:21:24.775Z,16.20
2022-09-20T15:23:53.079Z,16.10
2022-09-20T15:26:20.612Z,16.10
2022-09-20T15:28:48.957Z,16.10
2022-09-20T15:31:16.569Z,16.10
2022-09-20T15:33:44.004Z,16.10
2022-09-20T15:36:11.580Z,16.00
2022-09-20T15:38:39.154Z,16.00
2022-09-20T15:41:06.687Z,16.00
2022-09-20T15:43:34.261Z,16.00
2022-09-20T15:46:01.929Z,16.10
2022-09-20T15:48:30.102Z,16.10
2022-09-20T15:51:03.354Z,16.10
2022-09-20T15:53:37.044Z,16.10
2022-09-20T15:56:16.651Z,16.00
2022-09-20T15:58:44.164Z,16.00
2022-09-20T16:01:12.519Z,16.00
2022-09-20T16:03:40.040Z,16.00
2022-09-20T16:06:07.566Z,16.00
2022-09-20T16:08:35.110Z,16.00
2022-09-20T16:11:03.442Z,16.10
2022-09-20T16:13:30.969Z,16.10
2022-09-20T16:15:58.492Z,16.10
2022-09-20T16:18:41.269Z,16.10
2022-09-20T16:21:11.555Z,16.10
2022-09-20T16:23:39.056Z,16.10
2022-09-20T16:26:06.650Z,16.00
2022-09-20T16:28:34.165Z,16.00
2022-09-20T16:31:01.699Z,16.00
2022-09-20T16:33:29.264Z,16.00
2022-09-20T16:35:56.808Z,15.90
2022-09-20T16:38:24.344Z,15.90
2022-09-20T16:40:51.927Z,15.90
2022-09-20T16:43:19.463Z,15.90
2022-09-20T16:45:47.006Z,15.80
2022-09-20T16:48:14.570Z,15.80
2022-09-20T16:50:42.056Z,15.70
2022-09-20T16:53:10.369Z,15.70
2022-09-20T16:55:37.923Z,15.70
2022-09-20T16:58:05.459Z,15.60
2022-09-20T17:00:32.994Z,15.60
2022-09-20T17:03:00.548Z,15.50
2022-09-20T17:05:28.075Z,15.50
2022-09-20T17:07:55.618Z,15.70
2022-09-20T17:10:23.181Z,15.70
2022-09-20T17:12:50.728Z,15.60
2022-09-20T17:15:18.270Z,15.60
2022-09-20T17:17:46.593Z,15.40
2022-09-20T17:20:14.137Z,15.40
2022-09-20T17:22:41.672Z,15.40
2022-09-20T17:25:09.364Z,15.30
2022-09-20T17:27:36.899Z,15.20
2022-09-20T17:30:04.502Z,15.10
2022-09-20T17:32:32.080Z,15.00
2022-09-20T17:34:59.612Z,14.90
2022-09-20T17:37:27.147Z,14.90
2022-09-20T17:39:54.720Z,14.90
2022-09-20T17:42:22.246Z,14.80
2022-09-20T17:44:49.771Z,14.80
2022-09-20T17:47:17.333Z,14.70
2022-09-20T17:49:45.636Z,14.60
2022-09-20T17:52:13.181Z,14.60
2022-09-20T17:54:41.513Z,14.60
2022-09-20T17:57:09.077Z,14.50
2022-09-20T17:59:36.621Z,14.50
2022-09-20T18:02:04.186Z,14.50
2022-09-20T18:04:31.730Z,14.70
2022-09-20T18:06:59.255Z,14.70
2022-09-20T18:09:27.613Z,14.50
2022-09-20T18:11:55.112Z,14.50
2022-09-20T18:14:22.647Z,14.40
2022-09-20T18:16:53.925Z,14.30
2022-09-20T18:19:21.448Z,14.30
2022-09-20T18:21:49.779Z,14.20
2022-09-20T18:24:17.304Z,14.20
2022-09-20T18:26:44.829Z,14.20
2022-09-20T18:29:18.325Z,14.20
2022-09-20T18:31:52.014Z,14.20
2022-09-20T18:34:20.237Z,14.10
2022-09-20T18:36:50.604Z,14.10
2022-09-20T18:39:18.168Z,14.10
2022-09-20T18:41:45.705Z,14.00
2022-09-20T18:44:13.237Z,14.00
2022-09-20T18:46:41.503Z,14.00
2022-09-20T18:49:08.967Z,14.00
2022-09-20T18:51:39.674Z,14.00
2022-09-20T18:54:04.867Z,14.00
2022-09-20T18:56:32.369Z,14.00
2022-09-20T18:58:59.893Z,14.00
2022-09-20T19:01:39.231Z,14.20
2022-09-20T19:04:25.270Z,14.20
2022-09-20T19:07:17.429Z,14.20
2022-09-20T19:09:53.719Z,14.10
2022-09-20T19:12:21.245Z,14.10
2022-09-20T19:15:00.711Z,14.10
2022-09-20T19:17:52.270Z,14.00
2022-09-20T19:20:22.565Z,14.00
2022-09-20T19:23:11.532Z,14.20
2022-09-20T19:25:42.985Z,14.10
2022-09-20T19:28:11.288Z,14.10
2022-09-20T19:30:38.823Z,14.00
2022-09-20T19:33:07.165Z,13.90
2022-09-20T19:35:34.719Z,13.90
2022-09-20T19:38:13.971Z,13.90
2022-09-20T19:40:44.134Z,13.80
2022-09-20T19:43:17.429Z,13.80
2022-09-20T19:46:09.867Z,13.70
2022-09-20T19:48:40.098Z,13.70
2022-09-20T19:51:10.557Z,13.70
2022-09-20T19:53:38.426Z,13.70
2022-09-20T19:56:23.871Z,13.60
2022-09-20T19:58:51.516Z,13.60
2022-09-20T20:01:22.120Z,13.90
2022-09-20T20:03:49.596Z,13.90
2022-09-20T20:06:23.580Z,13.70
2022-09-20T20:08:54.001Z,13.70
2022-09-20T20:11:30.446Z,13.70
2022-09-20T20:14:03.911Z,13.60
2022-09-20T20:16:40.666Z,13.80
2022-09-20T20:19:26.889Z,13.70
2022-09-20T20:22:09.173Z,13.70
2022-09-20T20:24:52.569Z,13.50
2022-09-20T20:27:21.098Z,13.50
2022-09-20T20:29:48.624Z,13.50
2022-09-20T20:32:16.164Z,13.70
2022-09-20T20:34:43.732Z,13.60
2022-09-20T20:37:11.258Z,13.60
2022-09-20T20:39:38.792Z,13.50
2022-09-20T20:42:06.371Z,13.40
2022-09-20T20:44:33.902Z,13.30
2022-09-20T20:47:01.465Z,13.30
2022-09-20T20:49:29.051Z,13.30
2022-09-20T20:51:56.587Z,13.20
2022-09-20T20:54:24.129Z,13.10
2022-09-20T20:56:52.639Z,13.00
2022-09-20T20:59:20.173Z,13.00
2022-09-20T21:01:48.551Z,13.00
2022-09-20T21:04:16.060Z,12.90
2022-09-20T21:06:43.604Z,13.00
2022-09-20T21:09:11.129Z,12.90
2022-09-20T21:11:39.482Z,12.90
2022-09-20T21:14:07.008Z,12.90
2022-09-20T21:16:34.551Z,12.80
2022-09-20T21:19:02.403Z,12.80
2022-09-20T21:21:32.397Z,12.80
2022-09-20T21:24:00.700Z,12.80
2022-09-20T21:26:28.280Z,12.80
2022-09-20T21:28:55.810Z,12.80
2022-09-20T21:31:23.370Z,12.80
2022-09-20T21:33:51.676Z,12.80
2022-09-20T21:36:25.217Z,12.70
2022-09-20T21:38:53.509Z,12.70
2022-09-20T21:41:21.842Z,12.70
2022-09-20T21:43:49.387Z,12.60
2022-09-20T21:46:28.941Z,12.60
2022-09-20T21:48:59.147Z,12.80
2022-09-20T21:51:26.691Z,12.80
2022-09-20T21:53:57.337Z,12.70
2022-09-20T21:56:24.882Z,12.70
2022-09-20T21:58:52.426Z,12.60
2022-09-20T22:01:22.691Z,12.50
2022-09-20T22:03:50.185Z,12.50
2022-09-20T22:06:18.496Z,12.40
2022-09-20T22:08:46.081Z,12.30
2022-09-20T22:11:15.115Z,12.30
2022-09-20T22:13:41.160Z,12.20
2022-09-20T22:16:08.781Z,12.20
2022-09-20T22:18:36.278Z,12.30
2022-09-20T22:21:03.823Z,12.30
2022-09-20T22:23:32.146Z,12.10
2022-09-20T22:26:02.348Z,12.00
2022-09-20T22:28:29.868Z,12.00
2022-09-20T22:30:57.452Z,11.90
2022-09-20T22:33:24.954Z,11.80
2022-09-20T22:35:52.497Z,11.70
2022-09-20T22:38:20.086Z,11.90
2022-09-20T22:40:53.614Z,11.80
2022-09-20T22:43:21.959Z,11.90
2022-09-20T22:45:49.572Z,11.90
2022-09-20T22:48:17.861Z,12.30
2022-09-20T22:50:45.386Z,12.30
2022-09-20T22:53:13.709Z,11.90
2022-09-20T22:55:41.233Z,11.90
2022-09-20T22:58:08.760Z,11.80
2022-09-20T23:00:36.312Z,11.60
2022-09-20T23:03:03.867Z,11.50
2022-09-20T23:05:31.412Z,11.40
2022-09-20T23:07:58.976Z,11.50
2022-09-20T23:10:26.511Z,11.70
2022-09-20T23:12:54.057Z,11.60
2022-09-20T23:15:21.609Z,11.50
2022-09-20T23:17:49.145Z,11.30
2022-09-20T23:20:17.448Z,11.00
2022-09-20T23:22:45.012Z,11.00
2022-09-20T23:25:12.546Z,10.90
2022-09-20T23:27:40.849Z,10.80
2022-09-20T23:30:08.532Z,10.80
2022-09-20T23:32:36.057Z,10.70
2022-09-20T23:35:03.591Z,10.70
2022-09-20T23:37:31.954Z,10.50
2022-09-20T23:39:59.522Z,10.50
2022-09-20T23:42:27.022Z,10.40
2022-09-20T23:44:54.586Z,10.40
2022-09-20T23:47:24.622Z,10.30
2022-09-20T23:49:52.157Z,10.30
2022-09-20T23:52:19.713Z,10.20
2022-09-20T23:54:47.246Z,10.20
2022-09-20T23:57:15.540Z,10.10
2022-09-20T23:59:43.094Z,10.10
